Date,TemperatureHighF,TemperatureAvgF,TemperatureLowF,DewpointHighF,DewpointAvgF,DewpointLowF,HumidityHigh,HumidityAvg,HumidityLow,PressureMaxIn,PressureMinIn,WindSpeedMaxMPH,WindSpeedAvgMPH,GustSpeedMaxMPH,PrecipitationSumIn
2013-6-1,88.7,76.0,60.4,72.5,65.4,60.4,100,72,46,30.03,29.88,15,5,20,0.00
2013-6-2,81.0,72.0,63.9,70.3,64.0,53.7,100,77,46,29.88,29.80,15,6,21,0.00
2013-6-3,66.2,55.4,43.9,58.6,48.3,40.6,100,79,45,30.03,29.88,13,5,16,0.00
2013-6-4,64.9,51.7,42.3,43.4,39.8,30.5,95,67,30,30.18,30.03,13,4,17,0.00
2013-6-5,70.9,56.6,41.5,48.9,44.0,40.2,100,68,38,30.24,30.12,9,2,10,0.00
2013-6-6,59.0,54.9,51.4,58.1,52.5,43.2,100,92,67,30.12,29.91,14,3,19,0.00
2013-6-7,63.1,60.3,57.9,63.1,60.2,57.9,100,100,97,29.91,29.83,10,3,12,0.00
2013-6-8,66.2,58.5,55.6,62.6,58.1,55.6,100,98,76,30.12,29.80,10,3,12,0.00
2013-6-9,77.7,63.5,50.0,61.7,55.2,50.0,100,78,45,30.21,30.12,10,2,13,0.00
2013-6-10,66.7,63.3,54.9,65.8,61.3,53.7,100,94,71,30.21,29.83,11,3,21,0.00
2013-6-11,66.7,63.5,59.2,66.7,63.1,59.0,100,99,92,29.83,29.71,17,6,18,0.00
2013-6-12,76.1,63.1,54.7,58.8,55.4,50.6,100,79,43,29.97,29.83,11,4,13,0.16
2013-6-13,62.1,59.4,54.7,60.8,59.2,54.7,100,99,84,29.85,29.59,13,5,19,0.00
2013-6-14,73.0,62.7,56.3,63.1,58.5,56.2,100,88,57,29.97,29.77,15,4,17,0.00
2013-6-15,75.9,64.0,50.4,63.5,52.4,45.8,100,71,37,30.06,29.97,13,4,17,0.00
2013-6-16,73.2,64.6,52.9,69.1,59.3,50.9,100,84,57,30.03,29.77,13,5,20,0.00
2013-6-17,81.3,68.5,56.5,68.1,61.5,56.0,100,80,47,29.97,29.88,13,4,17,0.00
2013-6-18,71.8,61.4,51.4,68.5,56.6,49.1,100,86,51,30.03,29.94,10,3,12,0.00
2013-6-19,69.3,57.1,43.9,56.8,45.2,38.1,100,70,35,30.21,30.03,13,3,15,0.00
2013-6-20,82.4,61.1,40.5,56.5,48.6,40.5,100,69,35,30.27,30.21,12,3,13,0.00
2013-6-21,84.4,68.1,48.9,65.8,53.0,47.3,100,64,35,30.30,30.24,8,2,11,0.00
2013-6-22,86.0,73.5,57.6,66.4,61.8,56.1,100,69,44,30.24,30.09,13,5,16,0.00
2013-6-23,91.9,74.5,67.5,72.3,68.2,65.0,100,83,45,30.15,30.09,13,4,16,0.00
2013-6-24,90.1,76.7,64.8,73.9,68.2,63.5,100,78,43,30.12,30.03,12,3,16,0.00
2013-6-25,84.4,72.3,62.1,74.3,67.5,62.1,100,87,56,30.06,29.85,14,3,17,0.00
2013-6-26,82.8,73.8,65.1,69.9,67.3,63.0,100,82,54,29.91,29.85,8,3,10,0.00
2013-6-27,82.0,70.6,60.3,74.8,66.4,60.1,100,88,59,29.88,29.68,13,2,15,0.00
2013-6-28,74.5,67.9,63.9,71.1,67.1,63.7,100,98,83,29.68,29.56,8,3,9,0.00
2013-6-29,75.6,67.6,62.8,71.1,66.2,62.8,100,96,74,29.77,29.56,13,2,13,0.00
2013-6-30,83.8,70.9,58.6,71.2,66.4,58.6,100,87,56,29.97,29.77,10,2,10,0.00